Time;durP1;ratioP1;P1;durP2;ratioP2;P2;SDS_P1;SDS_P2;PMS_P1;PMS_P2;Temp;Humidity;BMP_temperature;BMP_pressure;BME280_temperature;BME280_humidity;BME280_pressure;Samples;Min_cycle;Max_cycle;Signal;HPM_P1;HPM_P2
2022/10/17 00:01:14;;;;;;;;;9.50;9.50;;;;;22.53;57.77;101696.38;105445;1275;19766;-58
2022/10/17 00:03:41;;;;;;;;;14.00;14.00;;;;;22.52;57.92;101696.30;105512;1282;19634;-57
2022/10/17 00:06:08;;;;;;;;;10.00;8.50;;;;;22.52;57.89;101696.30;105569;1288;18446;-58
2022/10/17 00:08:36;;;;;;;;;;;;;;;22.53;57.75;101700.05;105572;1281;20046;-57
2022/10/17 00:11:03;;;;;;;;;13.00;11.00;;;;;22.52;57.82;101700.98;105588;1297;19932;-58
2022/10/17 00:13:30;;;;;;;;;9.50;9.50;;;;;22.53;57.82;101696.05;105481;1298;18334;-54
2022/10/17 00:15:58;;;;;;;;;10.00;9.00;;;;;22.52;57.81;101690.09;105439;1282;22107;-55
2022/10/17 00:18:25;;;;;;;;;7.50;6.50;;;;;22.52;57.69;101682.05;105493;1282;23885;-55
2022/10/17 00:20:52;;;;;;;;;11.00;11.00;;;;;22.52;57.59;101678.84;105472;1282;19958;-53
2022/10/17 00:23:19;;;;;;;;;8.50;7.50;;;;;22.51;57.69;101677.23;105472;1289;18958;-56
2022/10/17 00:25:47;;;;;;;;;12.50;12.00;;;;;22.51;57.76;101679.09;105470;1291;22795;-56
2022/10/17 00:28:14;;;;;;;;;17.00;15.00;;;;;22.51;57.83;101683.80;105518;1288;19627;-53
2022/10/17 00:30:41;;;;;;;;;7.00;7.00;;;;;22.52;57.69;101692.48;105493;1296;21064;-53
2022/10/17 00:33:08;;;;;;;;;10.00;10.00;;;;;22.52;57.71;101695.04;105506;1296;20635;-56
2022/10/17 00:35:36;;;;;;;;;;;;;;;22.51;57.77;101698.04;105414;1290;18445;-58
2022/10/17 00:38:03;;;;;;;;;8.50;8.50;;;;;22.51;57.65;101697.33;105474;1300;18370;-58
2022/10/17 00:40:30;;;;;;;;;11.00;10.00;;;;;22.51;57.66;101697.63;105497;1297;19196;-56
2022/10/17 00:42:58;;;;;;;;;;;;;;;22.51;57.66;101703.84;105498;1298;20983;-59
2022/10/17 00:45:25;;;;;;;;;17.50;15.00;;;;;22.51;57.58;101709.89;105479;1282;18415;-60
2022/10/17 00:47:52;;;;;;;;;;;;;;;22.51;57.47;101708.84;105582;1285;19427;-55
2022/10/17 00:50:19;;;;;;;;;9.00;9.00;;;;;22.51;57.75;101706.30;105449;1280;20346;-60
2022/10/17 00:52:47;;;;;;;;;14.00;13.50;;;;;22.50;57.63;101704.88;105472;1297;18528;-57
2022/10/17 00:55:14;;;;;;;;;17.00;17.00;;;;;22.50;57.62;101699.98;105540;1274;19386;-58
2022/10/17 00:57:41;;;;;;;;;10.00;10.00;;;;;22.50;57.36;101695.86;105479;1282;20182;-59
2022/10/17 01:00:08;;;;;;;;;7.00;6.00;;;;;22.50;57.54;101695.58;105524;1279;18598;-57
2022/10/17 01:02:36;;;;;;;;;10.00;10.00;;;;;22.50;57.37;101685.41;105384;1289;19796;-56
2022/10/17 01:05:03;;;;;;;;;14.00;14.00;;;;;22.50;57.56;101674.17;105446;1291;22578;-58
2022/10/17 01:07:30;;;;;;;;;9.50;8.00;;;;;22.49;57.34;101681.73;105477;1291;20213;-59
2022/10/17 01:09:57;;;;;;;;;;;;;;;22.49;57.51;101689.91;105462;1282;19502;-58
2022/10/17 01:12:25;;;;;;;;;6.00;6.00;;;;;22.49;57.34;101699.96;105369;1278;19547;-58
2022/10/17 01:14:52;;;;;;;;;16.50;15.00;;;;;22.50;57.40;101701.15;105390;1282;20181;-56
2022/10/17 01:17:19;;;;;;;;;8.50;8.00;;;;;22.50;57.45;101700.03;105354;1282;22036;-56
2022/10/17 01:19:46;;;;;;;;;5.00;5.00;;;;;22.50;57.40;101702.75;105457;1291;20110;-57
2022/10/17 01:22:14;;;;;;;;;7.00;6.00;;;;;22.49;57.36;101706.96;105455;1291;18541;-54
2022/10/17 01:24:41;;;;;;;;;9.00;9.00;;;;;22.50;57.21;101710.23;105436;1282;20758;-57
2022/10/17 01:27:08;;;;;;;;;9.00;9.00;;;;;22.49;57.35;101715.23;105394;1290;22761;-57
2022/10/17 01:29:35;;;;;;;;;15.00;15.00;;;;;22.49;57.38;101721.82;105412;1282;20245;-58
2022/10/17 01:32:02;;;;;;;;;9.00;9.00;;;;;22.49;57.35;101719.41;105570;1297;19457;-59
2022/10/17 01:34:30;;;;;;;;;9.00;8.00;;;;;22.49;57.50;101721.98;105410;1279;20341;-60
2022/10/17 01:36:57;;;;;;;;;8.50;8.50;;;;;22.49;57.50;101729.18;105324;1290;19064;-59
2022/10/17 01:39:24;;;;;;;;;;;;;;;22.49;57.39;101734.34;105412;1282;19620;-57
2022/10/17 01:41:51;;;;;;;;;14.00;13.00;;;;;22.49;57.37;101729.60;105459;1295;19686;-58
2022/10/17 01:44:19;;;;;;;;;15.50;15.50;;;;;22.49;57.30;101726.73;105414;1290;20077;-58
2022/10/17 01:46:46;;;;;;;;;11.00;10.50;;;;;22.48;57.22;101721.46;105480;1297;19434;-58
2022/10/17 01:49:13;;;;;;;;;;;;;;;22.48;57.17;101729.70;105460;1282;20035;-56
2022/10/17 01:51:40;;;;;;;;;;;;;;;22.49;57.18;101732.74;105458;1282;20856;-57
2022/10/17 01:54:08;;;;;;;;;11.00;10.00;;;;;22.47;57.18;101738.70;105489;1297;19138;-58
2022/10/17 01:56:35;;;;;;;;;22.00;22.00;;;;;22.48;57.13;101746.11;105461;1274;18284;-56
2022/10/17 01:59:02;;;;;;;;;13.00;11.00;;;;;22.49;57.29;101753.71;105508;1304;22243;-56
2022/10/17 02:01:29;;;;;;;;;15.00;14.50;;;;;22.49;57.28;101753.14;105511;1281;21260;-56
2022/10/17 02:03:56;;;;;;;;;21.00;19.00;;;;;22.48;57.22;101752.70;105483;1297;20067;-59
2022/10/17 02:06:24;;;;;;;;;20.00;18.00;;;;;22.48;57.31;101749.73;105504;1292;18579;-56
2022/10/17 02:08:51;;;;;;;;;7.00;6.00;;;;;22.48;57.07;101749.23;105448;1291;20811;-55
2022/10/17 02:11:18;;;;;;;;;10.00;10.00;;;;;22.47;57.22;101748.20;105523;1297;19851;-55
2022/10/17 02:13:45;;;;;;;;;9.00;7.00;;;;;22.48;57.03;101750.84;105578;1297;18588;-58
2022/10/17 02:16:13;;;;;;;;;10.50;10.00;;;;;22.47;57.26;101741.46;105488;1282;20741;-56
2022/10/17 02:18:40;;;;;;;;;;;;;;;22.47;57.23;101732.20;105468;1282;19821;-55
2022/10/17 02:21:07;;;;;;;;;14.00;13.00;;;;;22.47;57.17;101738.36;105463;1288;18191;-58
2022/10/17 02:23:35;;;;;;;;;14.00;14.00;;;;;22.48;57.17;101741.61;105547;1297;19307;-57
2022/10/17 02:26:02;;;;;;;;;14.00;14.00;;;;;22.47;57.10;101743.98;105548;1297;20367;-57
2022/10/17 02:28:29;;;;;;;;;10.00;9.00;;;;;22.48;57.25;101742.70;105426;1282;20167;-57
2022/10/17 02:30:56;;;;;;;;;11.00;11.00;;;;;22.48;57.10;101737.02;105457;1296;21113;-57
2022/10/17 02:33:24;;;;;;;;;6.00;5.00;;;;;22.47;57.06;101722.89;105451;1297;20211;-59
2022/10/17 02:35:51;;;;;;;;;8.50;8.00;;;;;22.47;57.15;101727.45;105462;1298;18488;-56
2022/10/17 02:38:18;;;;;;;;;;;;;;;22.46;57.08;101741.70;105465;1300;21525;-60
2022/10/17 02:40:45;;;;;;;;;14.00;14.00;;;;;22.47;56.89;101742.59;105605;1298;20951;-58
2022/10/17 02:43:13;;;;;;;;;6.00;6.00;;;;;22.48;56.91;101746.31;105491;1294;18619;-56
2022/10/17 02:45:40;;;;;;;;;9.00;9.00;;;;;22.46;57.03;101750.81;105444;1289;19363;-56
2022/10/17 02:48:07;;;;;;;;;13.00;13.00;;;;;22.46;57.09;101759.42;105429;1282;18366;-56
2022/10/17 02:50:34;;;;;;;;;11.00;10.00;;;;;22.46;56.97;101753.41;105462;1291;20181;-56
2022/10/17 02:53:01;;;;;;;;;10.00;7.00;;;;;22.46;57.13;101741.19;105412;1300;22228;-53
2022/10/17 02:55:29;;;;;;;;;14.50;13.00;;;;;22.46;56.97;101738.14;105472;1298;19972;-58
2022/10/17 02:57:56;;;;;;;;;14.00;14.00;;;;;22.46;57.00;101753.00;105485;1297;21077;-58
2022/10/17 03:00:23;;;;;;;;;;;;;;;22.46;56.93;101758.91;105463;1278;20881;-58
2022/10/17 03:02:50;;;;;;;;;15.00;14.00;;;;;22.45;56.99;101759.56;105422;1287;18827;-58
2022/10/17 03:05:18;;;;;;;;;;;;;;;22.46;56.95;101767.82;105424;1289;20182;-57
2022/10/17 03:07:45;;;;;;;;;20.00;20.00;;;;;22.46;57.09;101776.66;105460;1287;20716;-57
2022/10/17 03:10:12;;;;;;;;;19.50;19.00;;;;;22.45;57.05;101772.60;105413;1282;23909;-59
2022/10/17 03:12:39;;;;;;;;;;;;;;;22.46;57.12;101771.13;105352;1290;128408;-58
2022/10/17 03:15:06;;;;;;;;;22.00;18.00;;;;;22.46;57.04;101775.09;105481;1296;19436;-58
2022/10/17 03:17:34;;;;;;;;;14.00;14.00;;;;;22.45;57.12;101769.70;105426;1288;22247;-58
2022/10/17 03:20:01;;;;;;;;;12.50;11.50;;;;;22.46;56.95;101770.59;105485;1300;22140;-56
2022/10/17 03:22:28;;;;;;;;;12.00;11.00;;;;;22.46;56.98;101769.80;105412;1298;23299;-56
2022/10/17 03:24:55;;;;;;;;;10.00;10.00;;;;;22.46;56.99;101776.91;105457;1282;20212;-55
2022/10/17 03:27:23;;;;;;;;;;;;;;;22.45;57.03;101776.50;105464;1299;18611;-59
2022/10/17 03:29:50;;;;;;;;;10.00;9.00;;;;;22.45;56.89;101776.08;105467;1282;20838;-55
2022/10/17 03:32:18;;;;;;;;;9.50;9.50;;;;;22.45;56.90;101776.08;105439;1275;19536;-59
2022/10/17 03:34:45;;;;;;;;;6.00;6.00;;;;;22.46;57.00;101782.20;105453;1297;18657;-59
2022/10/17 03:37:12;;;;;;;;;12.00;12.00;;;;;22.45;56.84;101789.58;105456;1288;23416;-54
2022/10/17 03:39:39;;;;;;;;;14.00;14.00;;;;;22.45;56.79;101796.92;105449;1282;19650;-57
2022/10/17 03:42:06;;;;;;;;;7.00;7.00;;;;;22.44;56.84;101797.66;105433;1297;18833;-59
2022/10/17 03:44:34;;;;;;;;;9.00;7.00;;;;;22.45;56.97;101797.63;105558;1291;23123;-60
2022/10/17 03:47:01;;;;;;;;;10.50;10.50;;;;;22.45;56.91;101797.94;105510;1300;18487;-58
2022/10/17 03:49:28;;;;;;;;;10.00;9.00;;;;;22.45;56.89;101796.37;105479;1281;18567;-58
2022/10/17 03:51:55;;;;;;;;;11.00;11.00;;;;;22.45;56.88;101795.45;105462;1275;20966;-59
2022/10/17 03:54:23;;;;;;;;;14.00;14.00;;;;;22.45;56.96;101791.45;105468;1300;22088;-57
2022/10/17 03:56:50;;;;;;;;;10.00;10.00;;;;;22.44;57.02;101799.30;105526;1297;18619;-58
2022/10/17 03:59:17;;;;;;;;;14.00;13.50;;;;;22.45;56.94;101802.55;105474;1298;19647;-59
2022/10/17 04:01:45;;;;;;;;;;;;;;;22.45;56.91;101814.91;105497;1296;20477;-59
2022/10/17 04:04:12;;;;;;;;;9.00;9.00;;;;;22.43;56.97;101820.95;105474;1282;20072;-58
2022/10/17 04:06:39;;;;;;;;;22.00;20.00;;;;;22.44;56.94;101820.34;105475;1303;19407;-58
2022/10/17 04:09:06;;;;;;;;;5.00;5.00;;;;;22.43;56.80;101820.75;105440;1288;19692;-59
2022/10/17 04:11:33;;;;;;;;;18.00;18.00;;;;;22.44;56.80;101819.96;105438;1300;18692;-58
2022/10/17 04:14:01;;;;;;;;;14.00;14.00;;;;;22.44;56.90;101819.80;105472;1300;19542;-56
2022/10/17 04:16:28;;;;;;;;;14.00;14.00;;;;;22.43;56.87;101820.54;105471;1281;18564;-57
2022/10/17 04:18:55;;;;;;;;;;;;;;;22.43;56.73;101812.80;105463;1277;20140;-57
2022/10/17 04:21:23;;;;;;;;;7.00;7.00;;;;;22.43;56.85;101808.73;105483;1288;21315;-57
2022/10/17 04:23:50;;;;;;;;;17.00;17.00;;;;;22.43;56.76;101807.54;105471;1288;18286;-57
2022/10/17 04:26:17;;;;;;;;;13.00;11.00;;;;;22.43;56.86;101807.67;105477;1281;20892;-58
2022/10/17 04:28:45;;;;;;;;;;;;;;;22.43;56.92;101809.18;105501;1297;19621;-58
2022/10/17 04:31:12;;;;;;;;;10.00;10.00;;;;;22.41;57.10;101810.19;105441;1282;22611;-56
2022/10/17 04:33:39;;;;;;;;;15.00;15.00;;;;;22.42;56.86;101802.91;105488;1282;18950;-58
2022/10/17 04:36:07;;;;;;;;;17.00;17.00;;;;;22.42;56.95;101797.02;105461;1282;20754;-59
2022/10/17 04:38:34;;;;;;;;;12.00;11.00;;;;;22.42;56.84;101799.73;105465;1296;18708;-56
2022/10/17 04:41:02;;;;;;;;;15.00;15.00;;;;;22.41;56.91;101798.94;105461;1289;22427;-57
2022/10/17 04:43:29;;;;;;;;;14.00;14.00;;;;;22.40;56.97;101798.90;105545;1289;20783;-56
2022/10/17 04:45:56;;;;;;;;;7.00;7.00;;;;;22.41;57.07;101804.23;105385;1275;18855;-58
2022/10/17 04:48:24;;;;;;;;;15.00;15.00;;;;;22.42;57.03;101809.27;105438;1287;18890;-57
2022/10/17 04:50:51;;;;;;;;;18.50;18.50;;;;;22.44;57.23;101818.87;105511;1282;21430;-55
2022/10/17 04:53:18;;;;;;;;;13.00;13.00;;;;;22.46;57.57;101825.98;105373;1290;19883;-56
2022/10/17 04:55:46;;;;;;;;;46.00;40.00;;;;;22.47;57.88;101824.31;105454;1281;18703;-59
2022/10/17 04:58:13;;;;;;;;;80.00;62.00;;;;;22.53;58.60;101819.17;105472;1297;19294;-56
2022/10/17 05:00:40;;;;;;;;;69.00;56.00;;;;;22.57;59.32;101822.32;105545;1288;20322;-56
2022/10/17 05:03:07;;;;;;;;;74.00;59.00;;;;;22.59;59.47;101821.82;105460;1275;18620;-58
2022/10/17 05:05:35;;;;;;;;;84.00;65.00;;;;;22.62;59.97;101814.36;105465;1297;20819;-56
2022/10/17 05:08:02;;;;;;;;;196.00;152.00;;;;;22.63;60.15;101814.45;105412;1282;18549;-56
2022/10/17 05:10:29;;;;;;;;;150.00;115.00;;;;;22.63;60.29;101814.22;105395;1282;19198;-55
2022/10/17 05:12:56;;;;;;;;;110.00;89.00;;;;;22.64;60.17;101820.70;105449;1274;24128;-58
2022/10/17 05:15:24;;;;;;;;;98.00;72.00;;;;;22.65;59.99;101822.63;105391;1282;22876;-56
2022/10/17 05:17:51;;;;;;;;;;;;;;;22.65;59.88;101829.39;105464;1290;20316;-58
2022/10/17 05:20:18;;;;;;;;;;;;;;;22.63;59.95;101827.34;105431;1282;19251;-59
2022/10/17 05:22:45;;;;;;;;;75.00;56.00;;;;;22.62;59.95;101820.16;105395;1297;23445;-60
2022/10/17 05:25:12;;;;;;;;;73.50;55.00;;;;;22.63;59.67;101824.47;105482;1281;21913;-60
2022/10/17 05:27:40;;;;;;;;;67.00;51.00;;;;;22.61;59.59;101832.80;105395;1282;19521;-60
2022/10/17 05:30:07;;;;;;;;;62.00;48.00;;;;;22.63;59.80;101842.33;105471;1283;20302;-55
2022/10/17 05:32:34;;;;;;;;;46.00;42.00;;;;;22.62;59.66;101847.66;105434;1288;20427;-55
2022/10/17 05:35:03;;;;;;;;;51.00;41.00;;;;;22.59;59.84;101842.77;105527;1288;20773;-61
2022/10/17 05:37:30;;;;;;;;;58.00;45.00;;;;;22.57;60.00;101841.69;105443;1274;22225;-58
2022/10/17 05:39:57;;;;;;;;;44.00;39.50;;;;;22.56;59.84;101845.27;105461;1282;20328;-61
2022/10/17 05:42:24;;;;;;;;;35.00;29.00;;;;;22.54;59.59;101844.70;105465;1288;20994;-57
2022/10/17 05:44:52;;;;;;;;;40.00;33.00;;;;;22.55;59.44;101855.72;105495;1275;18829;-58
2022/10/17 05:47:19;;;;;;;;;44.00;39.00;;;;;22.54;59.32;101862.96;105466;1291;19014;-56
2022/10/17 05:49:46;;;;;;;;;;;;;;;22.54;59.46;101864.23;105423;1297;22630;-60
2022/10/17 05:52:13;;;;;;;;;28.00;24.00;;;;;22.54;59.24;101870.83;105324;1296;20107;-59
2022/10/17 05:54:41;;;;;;;;;30.00;25.50;;;;;22.52;59.16;101874.04;105485;1290;23916;-57
2022/10/17 05:57:08;;;;;;;;;37.00;33.00;;;;;22.53;59.03;101871.06;105486;1291;19485;-59
2022/10/17 05:59:35;;;;;;;;;28.00;20.50;;;;;22.52;59.06;101865.88;105405;1284;23737;-58
2022/10/17 06:02:02;;;;;;;;;22.50;21.50;;;;;22.52;59.00;101864.46;105480;1288;20042;-59
2022/10/17 06:04:30;;;;;;;;;22.00;18.00;;;;;22.54;59.08;101865.89;105429;1297;20790;-59
2022/10/17 06:06:57;;;;;;;;;22.00;19.00;;;;;22.54;59.05;101868.05;105381;1281;20155;-58
2022/10/17 06:09:24;;;;;;;;;;;;;;;22.55;59.24;101879.27;105309;1274;20288;-58
2022/10/17 06:11:51;;;;;;;;;21.00;19.00;;;;;22.54;59.23;101882.57;105453;1288;21096;-57
2022/10/17 06:14:18;;;;;;;;;23.00;21.00;;;;;22.55;59.14;101879.05;105473;1300;18328;-59
2022/10/17 06:16:46;;;;;;;;;22.50;18.00;;;;;22.55;59.21;101872.67;105576;1295;18618;-59
2022/10/17 06:19:13;;;;;;;;;19.00;18.00;;;;;22.55;59.01;101868.63;105493;1288;19236;-58
2022/10/17 06:21:40;;;;;;;;;23.00;21.00;;;;;22.55;59.13;101870.81;105484;1274;18698;-58
2022/10/17 06:24:07;;;;;;;;;16.50;15.00;;;;;22.56;59.04;101876.02;105425;1288;18851;-58
2022/10/17 06:26:35;;;;;;;;;20.00;18.00;;;;;22.57;58.88;101881.04;105504;1288;22053;-59
2022/10/17 06:29:02;;;;;;;;;18.50;16.00;;;;;22.58;58.73;101886.92;105497;1282;18528;-57
2022/10/17 06:31:29;;;;;;;;;18.50;18.00;;;;;22.58;58.77;101884.54;105443;1282;20250;-58
2022/10/17 06:33:56;;;;;;;;;18.00;16.00;;;;;22.58;58.79;101882.00;105505;1282;20923;-58
2022/10/17 06:36:24;;;;;;;;;17.00;16.00;;;;;22.58;58.61;101886.69;105450;1281;18865;-58
2022/10/17 06:38:51;;;;;;;;;14.00;14.00;;;;;22.59;58.85;101887.91;105554;1288;18900;-58
2022/10/17 06:41:18;;;;;;;;;;;;;;;22.59;58.62;101889.91;105449;1282;22331;-58
2022/10/17 06:43:46;;;;;;;;;11.50;11.50;;;;;22.60;58.52;101893.39;105493;1297;20271;-59
2022/10/17 06:46:13;;;;;;;;;15.00;12.00;;;;;22.62;58.59;101899.20;105545;1296;18565;-58
2022/10/17 06:48:40;;;;;;;;;20.00;18.00;;;;;22.64;58.55;101902.15;105521;1297;19355;-59
2022/10/17 06:51:08;;;;;;;;;14.50;13.00;;;;;22.64;58.38;101904.51;105480;1282;20486;-60
2022/10/17 06:53:35;;;;;;;;;15.00;15.00;;;;;22.63;58.31;101902.45;105456;1296;18601;-59
2022/10/17 06:56:03;;;;;;;;;14.00;14.00;;;;;22.65;58.37;101899.66;105457;1297;20950;-59
2022/10/17 06:58:30;;;;;;;;;12.00;11.00;;;;;22.69;58.36;101899.77;105494;1275;22399;-58
2022/10/17 07:00:58;;;;;;;;;14.00;14.00;;;;;22.72;58.43;101902.82;105539;1282;18880;-58
2022/10/17 07:03:25;;;;;;;;;11.50;11.50;;;;;22.73;58.43;101914.35;105418;1282;19437;-56
2022/10/17 07:05:52;;;;;;;;;9.00;9.00;;;;;22.73;58.49;101917.42;105397;1282;18831;-53
2022/10/17 07:08:19;;;;;;;;;11.00;11.00;;;;;22.75;58.57;101920.30;105484;1281;18859;-57
2022/10/17 07:10:47;;;;;;;;;13.00;11.00;;;;;22.78;58.64;101931.12;105562;1281;21065;-59
2022/10/17 07:13:14;;;;;;;;;8.00;6.50;;;;;22.79;58.64;101931.33;105542;1278;18467;-56
2022/10/17 07:15:41;;;;;;;;;7.00;6.00;;;;;22.80;58.55;101931.23;105518;1291;20178;-56
2022/10/17 07:18:08;;;;;;;;;6.50;6.00;;;;;22.81;58.64;101930.38;105503;1282;20880;-58
2022/10/17 07:20:35;;;;;;;;;17.00;16.00;;;;;22.81;58.70;101928.80;105607;1297;18469;-59
2022/10/17 07:23:03;;;;;;;;;33.50;27.50;;;;;22.68;58.43;101931.02;105464;1288;18899;-59
2022/10/17 07:25:30;;;;;;;;;28.00;27.00;;;;;22.58;57.98;101937.34;105464;1274;22230;-60
2022/10/17 07:27:57;;;;;;;;;27.00;22.00;;;;;22.54;57.75;101942.77;105489;1296;22621;-60
2022/10/17 07:30:25;;;;;;;;;28.00;27.00;;;;;22.53;57.81;101945.91;105487;1297;18940;-58
2022/10/17 07:32:52;;;;;;;;;30.00;27.00;;;;;22.57;57.48;101944.42;105407;1282;19291;-59
2022/10/17 07:35:20;;;;;;;;;29.00;27.00;;;;;22.52;57.23;101943.61;105551;1289;19885;-60
2022/10/17 07:37:47;;;;;;;;;29.00;27.00;;;;;22.51;57.28;101939.77;105516;1288;22607;-57
2022/10/17 07:40:14;;;;;;;;;;;;;;;22.53;57.37;101944.65;105477;1274;19471;-54
2022/10/17 07:42:42;;;;;;;;;28.50;24.50;;;;;22.55;57.18;101943.67;105475;1282;27355;-53
2022/10/17 07:45:09;;;;;;;;;;;;;;;22.54;57.10;101939.23;105477;1298;19031;-57
2022/10/17 07:47:36;;;;;;;;;31.00;25.00;;;;;22.62;57.17;101937.16;105578;1296;19432;-57
2022/10/17 07:50:03;;;;;;;;;26.50;24.00;;;;;22.63;56.95;101928.80;105493;1295;19326;-56
2022/10/17 07:52:31;;;;;;;;;32.00;29.00;;;;;22.62;56.98;101928.34;105451;1274;20148;-58
2022/10/17 07:54:58;;;;;;;;;26.00;24.50;;;;;22.62;57.15;101933.13;105459;1280;20756;-58
2022/10/17 07:57:25;;;;;;;;;34.00;32.00;;;;;22.59;57.17;101928.88;105476;1275;23932;-55
2022/10/17 07:59:53;;;;;;;;;26.50;25.00;;;;;22.56;57.22;101927.62;105505;1303;18813;-58
2022/10/17 08:02:20;;;;;;;;;35.00;29.00;;;;;22.54;57.42;101925.84;105462;1296;19352;-58
2022/10/17 08:04:47;;;;;;;;;31.00;29.50;;;;;22.55;57.39;101924.58;105534;1282;20070;-58
2022/10/17 08:07:15;;;;;;;;;31.00;29.50;;;;;22.57;57.35;101924.04;105494;1274;20141;-58
2022/10/17 08:09:43;;;;;;;;;32.00;28.00;;;;;22.57;57.38;101919.25;105461;1290;19427;-58
2022/10/17 08:12:10;;;;;;;;;;;;;;;22.57;57.19;101920.17;105339;1282;20898;-55
2022/10/17 08:14:38;;;;;;;;;;;;;;;22.56;57.30;101919.90;105377;1275;19559;-56
2022/10/17 08:17:05;;;;;;;;;;;;;;;22.59;57.27;101920.34;105396;1300;20419;-56
2022/10/17 08:19:32;;;;;;;;;80.00;57.50;;;;;22.63;57.42;101912.77;105455;1291;19575;-57
2022/10/17 08:22:00;;;;;;;;;;;;;;;22.69;57.09;101905.05;105399;1284;18882;-55
2022/10/17 08:24:28;;;;;;;;;93.00;67.00;;;;;22.74;57.30;101904.44;105378;1275;22267;-57
2022/10/17 08:26:57;;;;;;;;;87.50;64.00;;;;;22.76;57.13;101906.36;105401;1282;18077;-59
2022/10/17 08:29:24;;;;;;;;;74.00;56.00;;;;;22.77;57.30;101904.57;105422;1282;20030;-56
2022/10/17 08:31:51;;;;;;;;;76.50;57.00;;;;;22.78;57.40;101898.70;105489;1297;19463;-56
2022/10/17 08:34:18;;;;;;;;;70.00;52.00;;;;;22.80;57.27;101904.34;105440;1282;19919;-57
2022/10/17 08:36:46;;;;;;;;;65.00;48.50;;;;;22.82;57.50;101901.14;105384;1274;19729;-57
2022/10/17 08:39:13;;;;;;;;;57.00;45.00;;;;;22.86;57.51;101895.77;105418;1297;20813;-53
2022/10/17 08:41:40;;;;;;;;;54.00;45.00;;;;;22.90;57.56;101895.54;105425;1290;20168;-53
2022/10/17 08:44:07;;;;;;;;;46.00;38.00;;;;;22.93;57.50;101897.84;105503;1288;18640;-51
2022/10/17 08:46:34;;;;;;;;;47.00;39.50;;;;;22.91;57.59;101896.19;105482;1281;19697;-54
2022/10/17 08:49:02;;;;;;;;;46.00;38.00;;;;;22.91;57.83;101895.27;105443;1280;22719;-57
2022/10/17 08:51:29;;;;;;;;;39.00;36.00;;;;;22.88;57.68;101898.12;105468;1291;20349;-53
2022/10/17 08:53:57;;;;;;;;;37.00;31.00;;;;;22.87;58.01;101899.50;105493;1287;21073;-54
2022/10/17 08:56:24;;;;;;;;;38.00;36.00;;;;;22.84;57.95;101898.73;105471;1283;22945;-55
2022/10/17 08:58:51;;;;;;;;;37.50;33.00;;;;;22.86;58.10;101905.70;105520;1303;22440;-55
2022/10/17 09:01:18;;;;;;;;;35.00;31.00;;;;;22.85;58.14;101904.16;105477;1274;22042;-55
2022/10/17 09:03:46;;;;;;;;;33.00;31.50;;;;;22.82;58.03;101899.45;105476;1297;20120;-52
2022/10/17 09:06:13;;;;;;;;;31.50;30.00;;;;;22.82;58.16;101890.77;105480;1274;18624;-56
2022/10/17 09:08:40;;;;;;;;;25.00;25.00;;;;;22.82;58.30;101895.70;105458;1288;19595;-55
2022/10/17 09:11:08;;;;;;;;;31.50;28.00;;;;;22.80;58.49;101892.59;105492;1297;19861;-52
2022/10/17 09:13:35;;;;;;;;;34.00;32.00;;;;;22.78;58.65;101894.33;105516;1297;18693;-55
2022/10/17 09:16:02;;;;;;;;;32.00;31.00;;;;;22.76;58.74;101894.29;105450;1282;23838;-55
2022/10/17 09:18:30;;;;;;;;;30.50;29.50;;;;;22.77;58.81;101892.98;105485;1297;18709;-56
2022/10/17 09:20:57;;;;;;;;;34.00;29.00;;;;;22.80;58.83;101891.73;105474;1296;20891;-54
2022/10/17 09:23:25;;;;;;;;;;;;;;;22.80;58.88;101888.27;105562;1282;21102;-55
2022/10/17 09:25:53;;;;;;;;;29.00;28.00;;;;;22.80;58.92;101885.71;105515;1297;18862;-54
2022/10/17 09:28:20;;;;;;;;;25.50;25.00;;;;;22.83;58.84;101884.12;105496;1300;22788;-52
2022/10/17 09:30:47;;;;;;;;;29.00;25.00;;;;;22.86;59.03;101885.30;105527;1282;19594;-52
2022/10/17 09:33:14;;;;;;;;;26.00;23.50;;;;;22.86;58.98;101883.39;105466;1281;20025;-55
2022/10/17 09:35:42;;;;;;;;;28.00;26.00;;;;;22.87;59.06;101882.79;105525;1274;18671;-54
2022/10/17 09:38:09;;;;;;;;;27.00;24.00;;;;;22.86;59.25;101877.55;105505;1297;21018;-57
2022/10/17 09:40:36;;;;;;;;;26.00;23.00;;;;;22.87;59.42;101876.64;105411;1274;20039;-56
2022/10/17 09:43:03;;;;;;;;;29.50;26.00;;;;;22.88;59.42;101874.15;105498;1274;18611;-56
2022/10/17 09:45:32;;;;;;;;;29.00;27.00;;;;;22.87;59.61;101874.80;105464;1296;19444;-58
2022/10/17 09:47:59;;;;;;;;;28.50;25.00;;;;;22.88;59.59;101874.98;105349;1282;18851;-54
2022/10/17 09:50:27;;;;;;;;;35.50;26.50;;;;;22.88;59.55;101873.02;105532;1282;18991;-56
2022/10/17 09:52:54;;;;;;;;;30.00;26.00;;;;;22.86;59.62;101871.77;105561;1297;19606;-54
2022/10/17 09:55:21;;;;;;;;;28.00;25.00;;;;;22.83;59.65;101873.34;105508;1282;21460;-54
2022/10/17 09:57:49;;;;;;;;;31.00;25.00;;;;;22.79;59.75;101880.11;105583;1274;21634;-55
2022/10/17 10:00:16;;;;;;;;;37.00;33.00;;;;;22.79;59.86;101881.78;105598;1281;20749;-56
2022/10/17 10:02:43;;;;;;;;;33.00;32.00;;;;;22.75;59.93;101880.22;105487;1280;18470;-53
2022/10/17 10:05:10;;;;;;;;;38.00;33.00;;;;;22.72;60.00;101876.01;105494;1278;20725;-56
2022/10/17 10:07:37;;;;;;;;;32.00;29.00;;;;;22.73;60.16;101870.95;105486;1290;22518;-55
2022/10/17 10:10:05;;;;;;;;;33.00;32.00;;;;;22.75;60.09;101870.41;105493;1298;22025;-51
2022/10/17 10:12:32;;;;;;;;;36.00;31.00;;;;;22.72;60.23;101865.45;105487;1282;22307;-51
2022/10/17 10:14:59;;;;;;;;;33.50;30.00;;;;;22.72;60.10;101869.61;105489;1296;20708;-51
2022/10/17 10:17:26;;;;;;;;;37.00;30.00;;;;;22.71;60.08;101866.09;105489;1282;21305;-54
2022/10/17 10:19:54;;;;;;;;;34.00;32.00;;;;;22.71;60.12;101869.89;105520;1282;20337;-53
2022/10/17 10:22:22;;;;;;;;;33.00;29.50;;;;;22.71;60.01;101870.15;105507;1282;19258;-56
2022/10/17 10:24:49;;;;;;;;;40.00;35.00;;;;;22.70;60.11;101869.69;105469;1282;19915;-58
2022/10/17 10:27:17;;;;;;;;;35.00;33.50;;;;;22.71;60.13;101871.32;105483;1288;18827;-58
2022/10/17 10:29:44;;;;;;;;;35.50;30.50;;;;;22.70;59.97;101866.54;105605;1282;20984;-56
2022/10/17 10:32:11;;;;;;;;;36.00;31.00;;;;;22.70;60.00;101866.59;105528;1282;20024;-55
2022/10/17 10:34:41;;;;;;;;;29.00;27.00;;;;;22.69;59.92;101865.56;105503;1282;18818;-56
2022/10/17 10:37:08;;;;;;;;;32.00;28.00;;;;;22.69;59.95;101862.86;105513;1274;21202;-55
2022/10/17 10:39:35;;;;;;;;;34.00;31.00;;;;;22.72;59.95;101864.35;105464;1288;18705;-56
2022/10/17 10:42:03;;;;;;;;;36.00;29.00;;;;;22.74;59.97;101860.88;105492;1274;20197;-55
2022/10/17 10:44:30;;;;;;;;;36.00;30.00;;;;;22.74;59.85;101863.98;105471;1281;19706;-54
2022/10/17 10:46:57;;;;;;;;;31.00;27.00;;;;;22.73;59.82;101857.67;105486;1297;18779;-54
2022/10/17 10:49:24;;;;;;;;;36.00;33.00;;;;;22.73;59.90;101858.24;105413;1289;20436;-55
2022/10/17 10:51:51;;;;;;;;;;;;;;;22.68;59.79;101855.98;105411;1281;21159;-55
2022/10/17 10:54:19;;;;;;;;;;;;;;;22.64;59.99;101853.23;105539;1274;18489;-55
2022/10/17 10:56:46;;;;;;;;;38.00;34.00;;;;;22.65;59.93;101850.81;105467;1281;19471;-56
2022/10/17 10:59:13;;;;;;;;;;;;;;;22.68;59.93;101849.98;105529;1300;20541;-58
2022/10/17 11:01:41;;;;;;;;;38.00;37.00;;;;;22.69;59.92;101848.83;105572;1284;20165;-54
2022/10/17 11:04:08;;;;;;;;;40.00;35.00;;;;;22.71;59.58;101849.65;105549;1297;18778;-52
2022/10/17 11:06:35;;;;;;;;;39.00;32.00;;;;;22.71;59.71;101845.09;105495;1288;22183;-54
2022/10/17 11:09:03;;;;;;;;;29.50;29.50;;;;;22.71;59.55;101841.11;105473;1296;20340;-57
2022/10/17 11:11:30;;;;;;;;;;;;;;;22.74;59.65;101837.55;105591;1290;18937;-55